createdAt,value
2019-04-05T00:03:05.392Z,7.89
2019-04-05T00:08:14.247Z,7.59
2019-04-05T00:13:23.182Z,8.02
2019-04-05T00:18:32.068Z,7.60
2019-04-05T00:23:41.167Z,7.96
2019-04-05T00:28:51.775Z,8.24
2019-04-05T00:33:58.432Z,7.59
2019-04-05T00:39:07.351Z,7.68
2019-04-05T00:44:16.281Z,8.23
2019-04-05T00:49:25.176Z,8.72
2019-04-05T00:54:34.110Z,7.97
2019-04-05T00:59:43.013Z,8.62
2019-04-05T01:04:51.917Z,8.80
2019-04-05T01:10:00.774Z,8.61
2019-04-05T01:15:09.672Z,7.71
2019-04-05T01:20:18.979Z,8.71
2019-04-05T01:25:28.847Z,8.44
2019-04-05T01:30:38.955Z,8.43
2019-04-05T01:35:37.868Z,8.24
2019-04-05T01:40:46.781Z,7.94
2019-04-05T01:45:55.681Z,7.88
2019-04-05T01:51:04.528Z,8.22
2019-04-05T01:56:13.427Z,8.54
2019-04-05T02:01:22.317Z,8.74
2019-04-05T02:06:31.240Z,8.48
2019-04-05T02:11:40.155Z,8.97
2019-04-05T02:16:48.980Z,8.93
2019-04-05T02:21:57.843Z,10.11
2019-04-05T02:27:06.744Z,10.26
2019-04-05T02:32:15.658Z,9.77
2019-04-05T02:37:24.513Z,10.44
2019-04-05T02:42:33.372Z,10.24
2019-04-05T02:47:42.309Z,10.75
2019-04-05T02:52:51.187Z,10.78
2019-04-05T02:58:00.108Z,11.14
2019-04-05T03:03:08.968Z,11.24
2019-04-05T03:08:17.820Z,11.06
2019-04-05T03:13:26.727Z,11.66
2019-04-05T03:18:35.597Z,9.98
2019-04-05T03:23:44.466Z,10.64
2019-04-05T03:28:53.337Z,9.68
2019-04-05T03:34:02.403Z,10.12
2019-04-05T03:39:11.200Z,10.58
2019-04-05T03:44:23.026Z,10.14
2019-04-05T03:49:28.525Z,9.96
2019-04-05T03:54:37.386Z,9.60
2019-04-05T03:59:46.317Z,9.27
2019-04-05T04:04:55.160Z,8.76
2019-04-05T04:10:04.065Z,8.40
2019-04-05T04:15:14.144Z,8.22
2019-04-05T04:20:21.385Z,6.85
2019-04-05T04:25:30.237Z,6.40
2019-04-05T04:30:39.135Z,6.41
2019-04-05T04:35:48.006Z,6.44
2019-04-05T04:40:56.885Z,6.27
2019-04-05T04:46:05.763Z,6.01
2019-04-05T04:51:14.605Z,6.57
2019-04-05T04:56:23.466Z,4.70
2019-04-05T05:01:32.321Z,4.78
2019-04-05T05:06:41.170Z,4.94
2019-04-05T05:11:50.032Z,6.53
2019-04-05T05:16:58.891Z,5.82
2019-04-05T05:22:08.522Z,4.75
2019-04-05T05:27:17.395Z,4.44
2019-04-05T05:32:26.275Z,4.43
2019-04-05T05:37:35.126Z,4.22
2019-04-05T05:42:43.980Z,3.37
2019-04-05T05:47:52.866Z,3.29
2019-04-05T05:53:01.716Z,3.41
2019-04-05T05:58:10.609Z,3.11
2019-04-05T06:03:19.460Z,3.77
2019-04-05T06:08:29.329Z,2.70
2019-04-05T06:13:36.802Z,2.82
2019-04-05T06:18:48.442Z,2.54
2019-04-05T06:23:54.053Z,2.66
2019-04-05T06:29:02.928Z,2.64
2019-04-05T06:34:11.777Z,2.25
2019-04-05T06:39:20.874Z,2.66
2019-04-05T06:44:29.539Z,2.61
2019-04-05T06:49:38.431Z,2.37
2019-04-05T06:54:47.291Z,2.29
2019-04-05T06:59:56.132Z,2.50
2019-04-05T07:05:05.023Z,2.34
2019-04-05T07:10:13.923Z,2.46
2019-04-05T07:15:22.795Z,2.31
2019-04-05T07:20:31.661Z,2.31
2019-04-05T07:25:40.587Z,2.35
2019-04-05T07:30:49.449Z,2.07
2019-04-05T07:35:58.332Z,2.21
2019-04-05T07:41:07.184Z,1.99
2019-04-05T07:46:16.085Z,2.03
2019-04-05T07:51:24.949Z,2.23
2019-04-05T07:56:33.823Z,2.52
2019-04-05T08:01:42.707Z,2.37
2019-04-05T08:06:51.597Z,2.32
2019-04-05T08:12:00.453Z,1.88
2019-04-05T08:17:09.313Z,1.99
2019-04-05T08:22:18.178Z,1.98
2019-04-05T08:27:27.040Z,1.73
2019-04-05T08:32:35.904Z,1.74
2019-04-05T08:37:44.763Z,1.64
2019-04-05T08:42:53.675Z,1.67
2019-04-05T08:48:02.547Z,1.69
2019-04-05T08:53:11.392Z,1.60
2019-04-05T08:58:32.593Z,2.02
2019-04-05T09:03:28.684Z,1.72
2019-04-05T09:08:37.544Z,1.71
2019-04-05T09:13:46.518Z,1.71
2019-04-05T09:18:55.330Z,1.74
2019-04-05T09:24:04.230Z,1.75
2019-04-05T09:29:13.191Z,1.73
2019-04-05T09:34:23.313Z,1.75
2019-04-05T09:39:30.452Z,3.43
2019-04-05T09:44:39.312Z,4.67
2019-04-05T09:49:48.255Z,5.11
2019-04-05T09:54:57.128Z,5.20
2019-04-05T10:00:06.075Z,5.22
2019-04-05T10:05:14.918Z,4.64
2019-04-05T10:10:23.785Z,4.45
2019-04-05T10:15:32.663Z,3.96
2019-04-05T10:20:41.525Z,4.00
2019-04-05T10:25:50.374Z,4.01
2019-04-05T10:30:59.287Z,3.84
2019-04-05T10:36:08.136Z,3.44
2019-04-05T10:41:17.035Z,3.56
2019-04-05T10:46:25.885Z,3.85
2019-04-05T10:51:34.758Z,3.94
2019-04-05T10:56:43.699Z,4.72
2019-04-05T11:01:52.568Z,5.35
2019-04-05T11:07:01.526Z,8.41
2019-04-05T11:12:10.423Z,7.26
2019-04-05T11:17:19.341Z,7.29
2019-04-05T11:22:28.196Z,7.62
2019-04-05T11:27:37.091Z,7.64
2019-04-05T11:32:45.957Z,7.78
2019-04-05T11:37:54.816Z,7.53
2019-04-05T11:43:03.682Z,7.77
2019-04-05T11:48:12.600Z,7.43
2019-04-05T11:53:22.137Z,7.37
2019-04-05T11:58:29.873Z,7.32
2019-04-05T12:03:38.749Z,7.73
2019-04-05T12:08:47.600Z,7.48
2019-04-05T12:13:56.492Z,7.07
2019-04-05T12:19:05.482Z,6.56
2019-04-05T12:24:14.275Z,6.72
2019-04-05T12:29:23.114Z,6.81
2019-04-05T12:34:31.978Z,6.78
2019-04-05T12:39:40.876Z,6.80
2019-04-05T12:44:49.741Z,7.03
2019-04-05T12:49:58.627Z,7.81
2019-04-05T12:55:07.476Z,7.88
2019-04-05T13:00:16.358Z,8.21
2019-04-05T13:05:25.240Z,8.26
2019-04-05T13:10:34.102Z,8.95
2019-04-05T13:15:43.035Z,8.89
2019-04-05T13:20:51.908Z,8.76
2019-04-05T13:26:00.820Z,9.39
2019-04-05T13:31:09.709Z,8.45
2019-04-05T13:36:18.649Z,9.31
2019-04-05T13:41:27.495Z,10.10
2019-04-05T13:46:38.988Z,8.95
2019-04-05T13:51:44.748Z,7.66
2019-04-05T13:56:53.621Z,7.80
2019-04-05T14:02:06.258Z,7.30
2019-04-05T14:07:10.947Z,7.16
2019-04-05T14:12:19.819Z,7.17
2019-04-05T14:17:28.736Z,7.66
2019-04-05T14:22:37.611Z,7.92
2019-04-05T14:27:46.480Z,7.09
2019-04-05T14:32:55.721Z,6.64
2019-04-05T14:38:03.759Z,6.58
2019-04-05T14:43:14.686Z,6.39
2019-04-05T14:48:21.035Z,6.19
2019-04-05T14:53:32.336Z,6.22
2019-04-05T14:58:38.343Z,5.97
2019-04-05T15:03:47.216Z,6.80
2019-04-05T15:08:56.136Z,6.59
2019-04-05T15:14:05.079Z,7.42
2019-04-05T15:19:13.937Z,6.45
2019-04-05T15:24:22.803Z,5.62
2019-04-05T15:29:31.691Z,5.66
2019-04-05T15:34:40.536Z,5.33
2019-04-05T15:39:49.493Z,5.79
2019-04-05T15:44:58.331Z,5.72
2019-04-05T15:50:07.219Z,7.03
2019-04-05T15:55:16.073Z,8.26
2019-04-05T16:00:26.029Z,7.41
2019-04-05T16:05:33.923Z,8.15
2019-04-05T16:10:45.488Z,8.43
2019-04-05T16:15:51.259Z,7.66
2019-04-05T16:21:00.124Z,6.73
2019-04-05T16:26:09.013Z,5.37
2019-04-05T16:31:17.880Z,5.01
2019-04-05T16:36:26.733Z,4.32
2019-04-05T16:41:35.651Z,3.84
2019-04-05T16:46:44.534Z,3.68
2019-04-05T16:51:53.424Z,3.53
2019-04-05T16:57:02.294Z,3.46
2019-04-05T17:02:11.198Z,2.84
2019-04-05T17:07:20.035Z,2.74
2019-04-05T17:12:28.960Z,2.73
2019-04-05T17:17:37.856Z,2.73
2019-04-05T17:22:57.414Z,2.74
2019-04-05T17:27:55.208Z,3.05
2019-04-05T17:33:04.275Z,2.71
2019-04-05T17:38:13.119Z,2.98
2019-04-05T17:43:22.059Z,2.83
2019-04-05T17:48:30.911Z,3.04
2019-04-05T17:53:39.839Z,2.74
2019-04-05T17:58:48.731Z,3.01
2019-04-05T18:03:57.627Z,2.93
2019-04-05T18:09:06.484Z,2.66
2019-04-05T18:14:15.340Z,3.48
2019-04-05T18:19:24.221Z,3.28
2019-04-05T18:24:33.083Z,2.89
2019-04-05T18:29:41.945Z,3.06
2019-04-05T18:34:50.815Z,3.01
2019-04-05T18:39:59.671Z,2.99
2019-04-05T18:45:08.716Z,3.09
2019-04-05T18:50:17.594Z,3.34
2019-04-05T18:55:26.433Z,3.80
2019-04-05T19:00:35.303Z,4.05
2019-04-05T19:05:44.152Z,4.39
2019-04-05T19:10:53.040Z,4.43
2019-04-05T19:16:01.895Z,4.34
2019-04-05T19:21:10.744Z,4.59
2019-04-05T19:26:19.671Z,4.67
2019-04-05T19:52:02.185Z,6.75
2019-04-05T19:57:11.037Z,6.07
2019-04-05T20:02:19.918Z,6.48
2019-04-05T20:07:28.756Z,6.23
2019-04-05T20:12:37.635Z,6.33
2019-04-05T20:17:46.548Z,6.15
2019-04-05T20:22:55.364Z,7.36
2019-04-05T20:28:04.248Z,6.95
2019-04-05T20:33:13.114Z,7.82
2019-04-05T20:38:22.006Z,7.37
2019-04-05T20:43:30.840Z,7.03
2019-04-05T20:48:39.806Z,7.28
2019-04-05T20:53:48.653Z,7.71
2019-04-05T20:58:57.571Z,8.16
2019-04-05T21:04:06.443Z,7.90
2019-04-05T21:09:15.335Z,7.90
2019-04-05T21:14:24.243Z,8.86
2019-04-05T21:19:33.137Z,8.12
2019-04-05T21:24:42.018Z,9.56
2019-04-05T21:29:50.895Z,10.29
2019-04-05T21:34:59.876Z,11.21
2019-04-05T21:40:08.786Z,11.29
2019-04-05T21:45:17.757Z,10.95
2019-04-05T21:50:26.745Z,11.74
2019-04-05T21:55:35.669Z,11.65
2019-04-05T22:00:44.609Z,11.39
2019-04-05T22:05:53.590Z,11.95
2019-04-05T22:11:02.572Z,12.49
2019-04-05T22:16:11.539Z,12.59
2019-04-05T22:21:20.508Z,11.67
2019-04-05T22:26:29.510Z,12.64
2019-04-05T22:31:38.467Z,12.07
2019-04-05T22:36:47.428Z,11.17
2019-04-05T22:41:56.382Z,12.62
2019-04-05T22:47:05.375Z,13.00
2019-04-05T22:52:14.320Z,12.14
2019-04-05T22:57:23.294Z,12.68
2019-04-05T23:02:32.263Z,12.89
2019-04-05T23:07:41.244Z,12.70
2019-04-05T23:12:50.218Z,11.60
2019-04-05T23:17:59.187Z,12.04
2019-04-05T23:23:08.147Z,12.51
2019-04-05T23:28:17.110Z,12.07
2019-04-05T23:33:26.086Z,12.54
2019-04-05T23:38:35.079Z,12.17
2019-04-05T23:43:44.148Z,14.19
2019-04-05T23:48:53.106Z,13.77
2019-04-05T23:54:02.122Z,13.22
2019-04-05T23:59:11.055Z,14.27
